Portada
METAR-TAF:

METAR-TAF

Aeropuertos :

León, España

Aeropuerto de León

latitud: 42-35N, longitud: 005-39W, altitud: 926 m

Observación

El informe se hizo hace 24 minutos, a las 11:00 UTC
Viento 7 kt del sur-suroeste, variando entre sur-sureste y oeste-suroeste
Temperatura 12°C
Humedad 76%
Presión 1016 hPa
Visibilidad 10 km o más
Cielo nuboso a una altura de 1800 ft

METAR: LELN 231100Z 20007KT 150V240 9999 BKN018 12/08 Q1016

Hora: 12:24 (11:24 UTC)

Pronóstico

El informe se hizo hace 2 horas y 13 minutos, a las 09:11 UTC
Pronóstico válido del 23 a las 09 UTC al 23 a las 18 UTC
Viento 14 kt del sur-suroeste
Visibilidad 10 km o más
Escasas nubes a una altura de 2000 ft
Nubes dispersas a una altura de 3000 ft
Probabilidad 30% :
Temporalmente
del 23 a las 09 UTC al 23 a las 15 UTC
Cielo nuboso a una altura de 1000 ft
lluvia

TAF: LELN 230911Z 2309/2318 21014KT 9999 FEW020 SCT030 PROB30 TEMPO 2309/2315 RA BKN010

Observaciones y pronósticos meteorológicos de más de 4000 aeropuertos (mensajes METAR y TAF).

Los puntos amarillos y rojos representan las estaciones disponibles.

Ponga el ratón en el punto deseado para ver el nombre de la estación.

Haga clic para ver las observaciones y los pronósticos meteorológicos.

Para cambiar el mapa : haga clic en los botones verdes con una cruz de color negro para hacer un zoom, en el botón verde con un guión para alejar o en las flechas verdes para mapas adyacentes.


METAR-TAF: